createdAt,value
2016-10-15T00:00:19.706Z,8.95
2016-10-15T00:01:19.138Z,8.91
2016-10-15T00:02:19.357Z,8.82
2016-10-15T00:03:19.081Z,8.92
2016-10-15T00:04:21.555Z,8.91
2016-10-15T00:05:18.929Z,8.88
2016-10-15T00:06:18.854Z,8.94
2016-10-15T00:07:20.793Z,8.91
2016-10-15T00:08:20.252Z,9
2016-10-15T00:09:19.979Z,8.99
2016-10-15T00:10:18.963Z,8.92
2016-10-15T00:11:19.834Z,8.94
2016-10-15T00:12:19.430Z,9
2016-10-15T00:13:20.114Z,8.91
2016-10-15T00:14:19.738Z,8.88
2016-10-15T00:15:19.227Z,8.92
2016-10-15T00:16:20.450Z,8.95
2016-10-15T00:17:19.769Z,8.88
2016-10-15T00:18:20.728Z,8.87
2016-10-15T00:19:20.894Z,8.95
2016-10-15T00:20:20.105Z,8.95
2016-10-15T00:21:19.814Z,8.88
2016-10-15T00:22:19.938Z,8.95
2016-10-15T00:23:21.334Z,8.95
2016-10-15T00:24:19.967Z,8.92
2016-10-15T00:25:21.515Z,8.92
2016-10-15T00:26:18.828Z,8.92
2016-10-15T00:27:19.222Z,9.08
2016-10-15T00:28:20.637Z,9.03
2016-10-15T00:29:19.205Z,9.02
2016-10-15T00:30:19.143Z,8.95
2016-10-15T00:31:19.642Z,9.03
2016-10-15T00:32:19.262Z,9.03
2016-10-15T00:33:19.174Z,9.1
2016-10-15T00:34:19.476Z,8.97
2016-10-15T00:35:21.372Z,9.04
2016-10-15T00:36:19.580Z,9.04
2016-10-15T00:37:20.798Z,9.1
2016-10-15T00:38:19.738Z,9.13
2016-10-15T00:39:20.627Z,9.18
2016-10-15T00:40:20.388Z,9.06
2016-10-15T00:41:20.505Z,9.04
2016-10-15T00:42:20.970Z,9.14
2016-10-15T00:43:19.561Z,9.13
2016-10-15T00:44:20.568Z,9.19
2016-10-15T00:45:20.325Z,9.22
2016-10-15T00:46:20.714Z,9.19
2016-10-15T00:47:20.617Z,9.21
2016-10-15T00:48:19.305Z,9.19
2016-10-15T00:49:20.388Z,9.1
2016-10-15T00:50:21.085Z,9.22
2016-10-15T00:51:20.160Z,9.14
2016-10-15T00:52:21.339Z,9.11
2016-10-15T00:53:20.472Z,9.13
2016-10-15T00:54:21.197Z,9.1
2016-10-15T00:55:19.911Z,9.04
2016-10-15T00:56:20.381Z,9.04
2016-10-15T00:57:21.086Z,9.1
2016-10-15T00:58:20.734Z,9.11
2016-10-15T00:59:20.387Z,9.21
2016-10-15T01:00:20.213Z,9.11
2016-10-15T01:01:20.130Z,9.16
2016-10-15T01:02:20.678Z,9.16
2016-10-15T01:03:20.527Z,9.14
2016-10-15T01:04:20.546Z,9.1
2016-10-15T01:05:22.816Z,9.11
2016-10-15T01:06:20.458Z,9.06
2016-10-15T01:07:20.542Z,9.03
2016-10-15T01:08:20.427Z,9.1
2016-10-15T01:09:21.614Z,9.04
2016-10-15T01:10:21.927Z,9.13
2016-10-15T01:11:21.472Z,9.03
2016-10-15T01:12:21.125Z,9
2016-10-15T01:13:21.379Z,9.06
2016-10-15T01:14:20.647Z,9.04
2016-10-15T01:15:21.263Z,9.06
2016-10-15T01:16:21.395Z,9.16
2016-10-15T01:17:21.260Z,9.1
2016-10-15T01:18:21.682Z,9.14
2016-10-15T01:19:21.429Z,9.18
2016-10-15T01:20:20.877Z,9.14
2016-10-15T01:21:22.241Z,9.1
2016-10-15T01:22:20.807Z,9.18
2016-10-15T01:23:20.831Z,9.25
2016-10-15T01:24:21.135Z,9.22
2016-10-15T01:25:20.654Z,9.21
2016-10-15T01:26:20.903Z,9.14
2016-10-15T01:27:22.190Z,9.19
2016-10-15T01:28:22.289Z,9.19
2016-10-15T01:29:21.055Z,9.19
2016-10-15T01:30:21.054Z,9.18
2016-10-15T01:31:22.259Z,9.13
2016-10-15T01:32:20.713Z,9.14
2016-10-15T01:33:21.088Z,9.14
2016-10-15T01:34:20.278Z,9.11
2016-10-15T01:35:21.194Z,9.16
2016-10-15T01:36:21.282Z,9.16
2016-10-15T01:37:20.166Z,9.21
2016-10-15T01:38:21.222Z,9.03
2016-10-15T01:39:20.608Z,9.13
2016-10-15T01:40:20.286Z,9.03
2016-10-15T01:41:22.256Z,9.02
2016-10-15T01:42:22.459Z,9.04
2016-10-15T01:43:22.994Z,9.06
2016-10-15T01:44:20.324Z,9.1
2016-10-15T01:45:20.620Z,9.06
2016-10-15T01:46:21.673Z,9.1
2016-10-15T01:47:20.979Z,9.06
2016-10-15T01:48:22.062Z,9.03
2016-10-15T01:49:22.475Z,8.97
2016-10-15T01:50:21.356Z,9.03
2016-10-15T01:51:21.632Z,8.94
2016-10-15T01:52:23.761Z,9.02
2016-10-15T01:53:21.857Z,8.99
2016-10-15T01:54:21.907Z,8.97
2016-10-15T01:55:20.793Z,9.04
2016-10-15T01:56:22.010Z,9.02
2016-10-15T01:57:21.405Z,9.04
2016-10-15T01:58:21.458Z,8.94
2016-10-15T01:59:21.213Z,8.97
2016-10-15T02:00:22.322Z,8.89
2016-10-15T02:01:21.652Z,8.79
2016-10-15T02:02:21.097Z,8.87
2016-10-15T02:03:21.672Z,8.81
2016-10-15T02:04:23.002Z,8.79
2016-10-15T02:05:21.311Z,8.88
2016-10-15T02:06:20.542Z,8.82
2016-10-15T02:07:21.867Z,8.87
2016-10-15T02:08:21.199Z,8.78
2016-10-15T02:09:21.383Z,8.74
2016-10-15T02:10:21.653Z,8.64
2016-10-15T02:11:22.256Z,8.67
2016-10-15T02:12:22.299Z,8.55
2016-10-15T02:13:21.586Z,8.56
2016-10-15T02:14:22.264Z,8.46
2016-10-15T02:15:21.502Z,8.44
2016-10-15T02:16:21.366Z,8.36
2016-10-15T02:17:22.343Z,8.46
2016-10-15T02:18:21.188Z,8.36
2016-10-15T02:19:21.753Z,8.27
2016-10-15T02:20:21.771Z,8.3
2016-10-15T02:21:21.721Z,8.31
2016-10-15T02:22:21.666Z,8.18
2016-10-15T02:23:22.018Z,8.13
2016-10-15T02:24:22.448Z,8.15
2016-10-15T02:25:22.581Z,8.13
2016-10-15T02:26:22.364Z,8.19
2016-10-15T02:27:22.582Z,8.16
2016-10-15T02:28:21.792Z,8.13
2016-10-15T02:29:21.213Z,8.13
2016-10-15T02:30:21.883Z,8.06
2016-10-15T02:31:22.773Z,8.13
2016-10-15T02:32:29.562Z,8.13
2016-10-15T02:33:21.541Z,8.15
2016-10-15T02:34:23.130Z,8.16
2016-10-15T02:35:21.985Z,8.09
2016-10-15T02:36:21.670Z,8.06
2016-10-15T02:37:21.025Z,8.01
2016-10-15T02:38:21.341Z,7.95
2016-10-15T02:39:21.707Z,7.87
2016-10-15T02:40:21.507Z,7.85
2016-10-15T02:41:21.627Z,7.9
2016-10-15T02:42:22.468Z,7.93
2016-10-15T02:43:21.932Z,7.85
2016-10-15T02:44:22.406Z,7.75
2016-10-15T02:45:22.396Z,7.76
2016-10-15T02:46:21.968Z,7.82
2016-10-15T02:47:21.943Z,7.79
2016-10-15T02:48:22.777Z,7.93
2016-10-15T02:49:21.666Z,7.85
2016-10-15T02:50:21.790Z,7.85
2016-10-15T02:51:22.319Z,7.72
2016-10-15T02:52:23.323Z,7.87
2016-10-15T02:53:23.428Z,7.75
2016-10-15T02:54:22.526Z,7.75
2016-10-15T02:55:23.603Z,7.83
2016-10-15T02:56:22.726Z,7.85
2016-10-15T02:57:22.752Z,7.85
2016-10-15T02:58:22.900Z,7.9
2016-10-15T02:59:22.543Z,7.9
2016-10-15T03:00:21.897Z,7.83
2016-10-15T03:01:22.290Z,7.85
2016-10-15T03:02:23.062Z,7.85
2016-10-15T03:03:22.883Z,7.88
2016-10-15T03:04:22.404Z,7.82
2016-10-15T03:05:22.855Z,7.75
2016-10-15T03:06:22.966Z,7.69
2016-10-15T03:07:23.246Z,7.76
2016-10-15T03:08:22.431Z,7.72
2016-10-15T03:09:22.615Z,7.72
2016-10-15T03:10:22.161Z,7.72
2016-10-15T03:11:23.386Z,7.8
2016-10-15T03:12:22.622Z,7.72
2016-10-15T03:13:23.351Z,7.8
2016-10-15T03:14:22.991Z,7.79
2016-10-15T03:15:23.123Z,7.79
2016-10-15T03:16:22.110Z,7.82
2016-10-15T03:17:23.959Z,7.82
2016-10-15T03:18:22.951Z,7.69
2016-10-15T03:19:22.712Z,7.7
2016-10-15T03:20:23.395Z,7.73
2016-10-15T03:21:23.276Z,7.6
2016-10-15T03:22:23.848Z,7.66
2016-10-15T03:23:23.841Z,7.66
2016-10-15T03:24:22.191Z,7.63
2016-10-15T03:25:22.550Z,7.63
2016-10-15T03:26:23.536Z,7.61
2016-10-15T03:27:23.366Z,7.67
2016-10-15T03:28:23.507Z,7.66
2016-10-15T03:29:23.328Z,7.69
2016-10-15T03:30:23.723Z,7.72
2016-10-15T03:31:22.549Z,7.66
2016-10-15T03:32:22.948Z,7.58
2016-10-15T03:33:22.917Z,7.6
2016-10-15T03:34:22.887Z,7.69
2016-10-15T03:35:23.965Z,7.58
2016-10-15T03:36:23.923Z,7.61
2016-10-15T03:37:22.994Z,7.72
2016-10-15T03:38:22.737Z,7.72
2016-10-15T03:39:23.446Z,7.72
2016-10-15T03:40:23.400Z,7.69
2016-10-15T03:41:24.699Z,7.8
2016-10-15T03:42:23.165Z,7.69
2016-10-15T03:43:23.117Z,7.76
2016-10-15T03:44:23.960Z,7.82
2016-10-15T03:45:24.024Z,7.73
2016-10-15T03:46:24.268Z,7.69
2016-10-15T03:47:22.508Z,7.75
2016-10-15T03:48:23.234Z,7.72
2016-10-15T03:49:24.133Z,7.77
2016-10-15T03:50:24.008Z,7.77
2016-10-15T03:51:23.965Z,7.72
2016-10-15T03:52:24.589Z,7.67
2016-10-15T03:53:22.947Z,7.67
2016-10-15T03:54:23.004Z,7.7
2016-10-15T03:55:23.815Z,7.69
2016-10-15T03:56:23.419Z,7.66
2016-10-15T03:57:23.591Z,7.67
2016-10-15T03:58:23.260Z,7.58
2016-10-15T03:59:23.208Z,7.53
2016-10-15T04:00:22.938Z,7.56
2016-10-15T04:01:23.268Z,7.47
2016-10-15T04:02:23.875Z,7.51
2016-10-15T04:03:25.052Z,7.45
2016-10-15T04:04:22.813Z,7.47
2016-10-15T04:05:23.480Z,7.38
2016-10-15T04:06:23.150Z,7.36
2016-10-15T04:07:23.126Z,7.31
2016-10-15T04:08:23.715Z,7.39
2016-10-15T04:09:23.948Z,7.36
2016-10-15T04:10:22.798Z,7.38
2016-10-15T04:11:23.590Z,7.35
2016-10-15T04:12:23.508Z,7.33
2016-10-15T04:13:23.246Z,7.32
2016-10-15T04:14:23.321Z,7.36
2016-10-15T04:15:24.144Z,7.29
2016-10-15T04:16:23.625Z,7.33
2016-10-15T04:17:23.805Z,7.31
2016-10-15T04:18:23.100Z,7.32
2016-10-15T04:19:23.310Z,7.39
2016-10-15T04:20:24.665Z,7.32
2016-10-15T04:21:24.056Z,7.29
2016-10-15T04:22:24.121Z,7.28
2016-10-15T04:23:23.976Z,7.33
2016-10-15T04:24:23.937Z,7.25
2016-10-15T04:25:23.596Z,7.28
2016-10-15T04:26:24.394Z,7.25
2016-10-15T04:27:24.395Z,7.29
2016-10-15T04:28:23.939Z,7.32
2016-10-15T04:29:23.621Z,7.31
2016-10-15T04:30:23.469Z,7.36
2016-10-15T04:31:24.535Z,7.28
2016-10-15T04:32:23.165Z,7.29
2016-10-15T04:33:23.546Z,7.35
2016-10-15T04:34:25.269Z,7.29
2016-10-15T04:35:23.471Z,7.28
2016-10-15T04:36:23.766Z,7.32
2016-10-15T04:37:24.273Z,7.2
2016-10-15T04:38:24.272Z,7.18
2016-10-15T04:39:24.134Z,7.21
2016-10-15T04:40:25.425Z,7.24
2016-10-15T04:41:23.513Z,7.17
2016-10-15T04:42:23.411Z,7.24
2016-10-15T04:43:24.090Z,7.24
2016-10-15T04:44:24.005Z,7.2
2016-10-15T04:45:23.743Z,7.2
2016-10-15T04:46:24.310Z,7.17
2016-10-15T04:47:24.019Z,7.17
2016-10-15T04:48:24.553Z,7.17
2016-10-15T04:49:24.118Z,7.07
2016-10-15T04:50:25.246Z,7.2
2016-10-15T04:51:23.880Z,7.18
2016-10-15T04:52:24.885Z,7.15
2016-10-15T04:53:25.515Z,7.17
2016-10-15T04:54:24.607Z,7.14
2016-10-15T04:55:24.070Z,7.17
2016-10-15T04:56:24.236Z,7.15
2016-10-15T04:57:23.766Z,6.99
2016-10-15T04:58:26.042Z,7.06
2016-10-15T04:59:23.961Z,7.07
2016-10-15T05:00:24.204Z,7.02
2016-10-15T05:01:25.578Z,7
2016-10-15T05:02:23.774Z,7.02
2016-10-15T05:03:24.124Z,7.06
2016-10-15T05:04:25.449Z,7.03
2016-10-15T05:05:24.612Z,7
2016-10-15T05:06:24.263Z,7.06
2016-10-15T05:07:26.028Z,7.07
2016-10-15T05:08:24.403Z,7.13
2016-10-15T05:09:27.108Z,7.05
2016-10-15T05:10:24.579Z,7.03
2016-10-15T05:11:25.472Z,7.02
2016-10-15T05:12:24.599Z,6.97
2016-10-15T05:13:25.580Z,7.07
2016-10-15T05:14:24.361Z,7.07
2016-10-15T05:15:25.005Z,6.99
2016-10-15T05:16:25.073Z,7.14
2016-10-15T05:17:24.453Z,7.02
2016-10-15T05:18:25.228Z,7.11
2016-10-15T05:19:25.958Z,7
2016-10-15T05:20:25.905Z,7.1
2016-10-15T05:21:24.408Z,7.06
2016-10-15T05:22:25.551Z,6.93
2016-10-15T05:23:24.282Z,6.92
2016-10-15T05:24:25.495Z,7.05
2016-10-15T05:25:25.162Z,6.93
2016-10-15T05:26:25.009Z,6.93
2016-10-15T05:27:25.756Z,7.05
2016-10-15T05:28:25.705Z,7.03
2016-10-15T05:29:26.935Z,7.06
2016-10-15T05:30:25.336Z,7.05
2016-10-15T05:31:24.376Z,7.02
2016-10-15T05:32:25.103Z,7.13
2016-10-15T05:33:25.903Z,7.05
2016-10-15T05:34:25.761Z,7.15
2016-10-15T05:35:24.895Z,7.17
2016-10-15T05:36:24.831Z,7.25
2016-10-15T05:37:24.423Z,7.23
2016-10-15T05:38:25.581Z,7.23
2016-10-15T05:39:24.808Z,7.24
2016-10-15T05:40:25.044Z,7.23
2016-10-15T05:41:25.693Z,7.18
2016-10-15T05:42:24.509Z,7.23
2016-10-15T05:43:25.388Z,7.28
2016-10-15T05:44:25.156Z,7.24
2016-10-15T05:45:24.315Z,7.18
2016-10-15T05:46:25.261Z,7.31
2016-10-15T05:47:24.947Z,7.18
2016-10-15T05:48:24.674Z,7.2
2016-10-15T05:49:26.280Z,7.21
2016-10-15T05:50:25.512Z,7.1
2016-10-15T05:51:25.276Z,7.06
2016-10-15T05:52:26.029Z,7.05
2016-10-15T05:53:25.296Z,7
2016-10-15T05:54:24.908Z,7
2016-10-15T05:55:24.250Z,6.88
2016-10-15T05:56:24.598Z,6.93
2016-10-15T05:57:25.068Z,6.96
2016-10-15T05:58:25.176Z,6.92
2016-10-15T05:59:26.202Z,6.87
2016-10-15T06:00:26.138Z,6.92
2016-10-15T06:01:25.008Z,6.93
2016-10-15T06:02:25.598Z,6.85
2016-10-15T06:03:25.365Z,6.87
2016-10-15T06:04:25.064Z,6.78
2016-10-15T06:05:25.118Z,6.75
2016-10-15T06:06:26.286Z,6.67
2016-10-15T06:07:25.448Z,6.63
2016-10-15T06:08:25.538Z,6.63
2016-10-15T06:09:25.335Z,6.42
2016-10-15T06:10:25.298Z,6.49
2016-10-15T06:11:24.666Z,6.48
2016-10-15T06:12:26.976Z,6.59
2016-10-15T06:13:24.715Z,6.57
2016-10-15T06:14:26.867Z,6.69
2016-10-15T06:15:25.433Z,6.74
2016-10-15T06:16:25.830Z,6.63
2016-10-15T06:17:25.277Z,6.57
2016-10-15T06:18:25.758Z,6.54
2016-10-15T06:19:25.473Z,6.54
2016-10-15T06:20:25.373Z,6.52
2016-10-15T06:21:25.502Z,6.54
2016-10-15T06:22:25.499Z,6.52
2016-10-15T06:23:26.931Z,6.54
2016-10-15T06:24:25.360Z,6.54
2016-10-15T06:25:26.168Z,6.52
2016-10-15T06:26:25.147Z,6.62
2016-10-15T06:27:26.977Z,6.64
2016-10-15T06:28:25.043Z,6.74
2016-10-15T06:29:25.398Z,6.7
2016-10-15T06:30:26.402Z,6.72
2016-10-15T06:31:25.391Z,6.7
2016-10-15T06:32:25.830Z,6.67
2016-10-15T06:33:25.168Z,6.7
2016-10-15T06:34:26.049Z,6.7
2016-10-15T06:35:26.540Z,6.77
2016-10-15T06:36:25.141Z,6.85
2016-10-15T06:37:25.203Z,6.81
2016-10-15T06:38:25.928Z,6.88
2016-10-15T06:39:27.000Z,6.82
2016-10-15T06:40:26.305Z,6.82
2016-10-15T06:41:26.096Z,6.88
2016-10-15T06:42:26.740Z,6.89
2016-10-15T06:43:26.135Z,7.02
2016-10-15T06:44:25.572Z,6.88
2016-10-15T06:45:25.556Z,7.02
2016-10-15T06:46:26.023Z,7.14
2016-10-15T06:47:26.682Z,7.32
2016-10-15T06:48:25.863Z,7.33
2016-10-15T06:49:26.559Z,7.45
2016-10-15T06:50:26.651Z,7.58
2016-10-15T06:51:27.039Z,7.66
2016-10-15T06:52:26.632Z,7.75
2016-10-15T06:53:26.723Z,7.83
2016-10-15T06:54:25.373Z,7.76
2016-10-15T06:55:26.831Z,8.01
2016-10-15T06:56:27.451Z,8.08
2016-10-15T06:57:26.731Z,8.24
2016-10-15T06:58:26.391Z,8.3
2016-10-15T06:59:25.835Z,8.42
2016-10-15T07:00:25.784Z,8.53
2016-10-15T07:01:25.807Z,8.61
2016-10-15T07:02:25.541Z,8.64
2016-10-15T07:03:25.838Z,8.61
2016-10-15T07:04:26.098Z,8.78
2016-10-15T07:05:25.729Z,8.87
2016-10-15T07:06:26.710Z,8.97
2016-10-15T07:07:26.530Z,9.22
2016-10-15T07:08:26.892Z,9.29
2016-10-15T07:09:26.888Z,9.23
2016-10-15T07:10:27.085Z,9.37
2016-10-15T07:11:26.452Z,9.37
2016-10-15T07:12:25.834Z,9.56
2016-10-15T07:13:25.972Z,9.58
2016-10-15T07:14:26.125Z,9.72
2016-10-15T07:15:26.206Z,9.61
2016-10-15T07:16:26.255Z,9.62
2016-10-15T07:17:26.506Z,9.74
2016-10-15T07:18:27.200Z,9.86
2016-10-15T07:19:26.690Z,9.98
2016-10-15T07:20:27.558Z,10.04
2016-10-15T07:21:26.701Z,10.09
2016-10-15T07:22:26.474Z,10.05
2016-10-15T07:23:26.879Z,10.12
2016-10-15T07:24:26.086Z,10.25
2016-10-15T07:25:26.669Z,10.2
2016-10-15T07:26:28.042Z,10.13
2016-10-15T07:27:27.055Z,10.25
2016-10-15T07:28:27.272Z,10.26
2016-10-15T07:29:27.680Z,10.23
2016-10-15T07:30:27.494Z,10.09
2016-10-15T07:31:27.728Z,10.13
2016-10-15T07:32:27.013Z,10.02
2016-10-15T07:33:27.510Z,9.94
2016-10-15T07:34:26.743Z,9.8
2016-10-15T07:35:27.497Z,9.74
2016-10-15T07:36:27.163Z,9.68
2016-10-15T07:37:28.000Z,9.69
2016-10-15T07:38:27.369Z,9.72
2016-10-15T07:39:26.468Z,9.69
2016-10-15T07:40:27.715Z,9.79
2016-10-15T07:41:27.517Z,9.65
2016-10-15T07:42:26.335Z,9.69
2016-10-15T07:43:27.425Z,9.66
2016-10-15T07:44:26.603Z,9.87
2016-10-15T07:45:26.680Z,9.86
2016-10-15T07:46:27.571Z,9.87
2016-10-15T07:47:27.055Z,9.94
2016-10-15T07:48:27.595Z,9.83
2016-10-15T07:49:27.053Z,9.98
2016-10-15T07:50:27.580Z,10.12
2016-10-15T07:51:27.106Z,10.09
2016-10-15T07:52:27.420Z,10.2
2016-10-15T07:53:26.601Z,10.26
2016-10-15T07:54:26.604Z,10.31
2016-10-15T07:55:27.231Z,10.37
2016-10-15T07:56:27.707Z,10.37
2016-10-15T07:57:28.116Z,10.46
2016-10-15T07:58:26.862Z,10.48
2016-10-15T07:59:26.977Z,10.42
2016-10-15T08:00:27.681Z,10.56
2016-10-15T08:01:27.496Z,10.59
2016-10-15T08:02:27.221Z,10.64
2016-10-15T08:03:27.469Z,10.69
2016-10-15T08:04:27.018Z,10.69
2016-10-15T08:05:27.463Z,10.75
2016-10-15T08:06:27.245Z,10.71
2016-10-15T08:07:28.393Z,10.68
2016-10-15T08:08:28.404Z,10.69
2016-10-15T08:09:27.436Z,10.74
2016-10-15T08:10:27.369Z,10.76
2016-10-15T08:11:27.856Z,10.72
2016-10-15T08:12:27.801Z,10.64
2016-10-15T08:13:27.175Z,10.71
2016-10-15T08:14:27.363Z,10.76
2016-10-15T08:15:27.646Z,10.75
2016-10-15T08:16:27.838Z,10.74
2016-10-15T08:17:27.131Z,10.75
2016-10-15T08:18:28.006Z,10.78
2016-10-15T08:19:29.471Z,10.81
2016-10-15T08:20:27.811Z,10.82
2016-10-15T08:21:27.685Z,10.84
2016-10-15T08:22:27.227Z,10.81
2016-10-15T08:23:29.682Z,10.81
2016-10-15T08:24:28.180Z,10.75
2016-10-15T08:25:27.472Z,10.82
2016-10-15T08:26:28.801Z,10.79
2016-10-15T08:27:28.380Z,10.76
2016-10-15T08:28:29.664Z,10.81
2016-10-15T08:29:26.947Z,10.76
2016-10-15T08:30:28.075Z,10.76
2016-10-15T08:31:28.070Z,10.84
2016-10-15T08:32:27.935Z,10.76
2016-10-15T08:33:28.801Z,10.82
2016-10-15T08:34:29.990Z,10.81
2016-10-15T08:35:28.850Z,10.81
2016-10-15T08:36:30.145Z,10.86
2016-10-15T08:37:27.501Z,11.02
2016-10-15T08:38:27.900Z,10.89
2016-10-15T08:39:27.713Z,11.05
2016-10-15T08:40:28.033Z,11.1
2016-10-15T08:41:28.446Z,11.07
2016-10-15T08:42:27.628Z,11.18
2016-10-15T08:43:28.285Z,11.14
2016-10-15T08:44:27.962Z,11.23
2016-10-15T08:45:27.971Z,11.22
2016-10-15T08:46:29.865Z,11.29
2016-10-15T08:47:28.039Z,11.35
2016-10-15T08:48:28.444Z,11.45
2016-10-15T08:49:29.548Z,11.29
2016-10-15T08:50:28.528Z,11.37
2016-10-15T08:51:27.947Z,11.47
2016-10-15T08:52:28.922Z,11.48
2016-10-15T08:53:28.437Z,11.55
2016-10-15T08:54:28.339Z,11.43
2016-10-15T08:55:27.724Z,11.52
2016-10-15T08:56:29.000Z,11.68
2016-10-15T08:57:27.651Z,11.7
2016-10-15T08:58:29.604Z,11.77
2016-10-15T08:59:30.699Z,11.73
2016-10-15T09:00:27.909Z,11.84
2016-10-15T09:01:29.215Z,11.88
2016-10-15T09:02:28.788Z,12.02
2016-10-15T09:03:29.416Z,12.1
2016-10-15T09:04:28.813Z,12.15
2016-10-15T09:05:28.741Z,12.39
2016-10-15T09:06:28.572Z,12.53
2016-10-15T09:07:30.410Z,12.67
2016-10-15T09:08:29.749Z,12.67
2016-10-15T09:09:28.851Z,12.6
2016-10-15T09:10:29.555Z,12.64
2016-10-15T09:11:29.652Z,12.8
2016-10-15T09:12:28.736Z,12.75
2016-10-15T09:13:29.106Z,12.68
2016-10-15T09:14:29.270Z,12.7
2016-10-15T09:15:29.112Z,12.6
2016-10-15T09:16:28.525Z,12.61
2016-10-15T09:17:29.885Z,12.62
2016-10-15T09:18:28.244Z,12.61
2016-10-15T09:19:28.474Z,12.65
2016-10-15T09:20:28.505Z,12.78
2016-10-15T09:21:29.164Z,12.9
2016-10-15T09:22:28.271Z,12.87
2016-10-15T09:23:29.044Z,12.9
2016-10-15T09:24:29.869Z,12.85
2016-10-15T09:25:28.489Z,12.87
2016-10-15T09:26:28.719Z,12.73
2016-10-15T09:27:28.074Z,12.7
2016-10-15T09:28:29.149Z,12.8
2016-10-15T09:29:28.933Z,12.87
2016-10-15T09:30:29.338Z,12.94
2016-10-15T09:31:28.473Z,13.03
2016-10-15T09:32:29.637Z,12.79
2016-10-15T09:33:30.011Z,12.9
2016-10-15T09:34:28.474Z,12.9
2016-10-15T09:35:29.520Z,12.91
2016-10-15T09:36:30.315Z,13.04
2016-10-15T09:37:30.427Z,12.95
2016-10-15T09:38:29.294Z,12.95
2016-10-15T09:39:29.013Z,12.95
2016-10-15T09:40:29.653Z,13.05
2016-10-15T09:41:28.809Z,12.98
2016-10-15T09:42:29.747Z,12.98
2016-10-15T09:43:29.424Z,12.91
2016-10-15T09:44:29.499Z,12.93
2016-10-15T09:45:29.364Z,12.87
2016-10-15T09:46:30.306Z,12.85
2016-10-15T09:47:29.398Z,12.91
2016-10-15T09:48:29.273Z,12.9
2016-10-15T09:49:29.422Z,12.94
2016-10-15T09:50:29.825Z,12.97
2016-10-15T09:51:29.359Z,12.94
2016-10-15T09:52:30.856Z,12.95
2016-10-15T09:53:30.035Z,12.95
2016-10-15T09:54:28.911Z,12.94
2016-10-15T09:55:30.350Z,12.94
2016-10-15T09:56:30.247Z,13.04
2016-10-15T09:57:29.829Z,13.16
2016-10-15T09:58:29.250Z,13.13
2016-10-15T09:59:30.651Z,13.15
2016-10-15T10:00:29.450Z,13.09
2016-10-15T10:01:30.224Z,13.3
2016-10-15T10:02:29.812Z,13.25
2016-10-15T10:03:29.607Z,13.28
2016-10-15T10:04:29.444Z,13.37
2016-10-15T10:05:29.372Z,13.44
2016-10-15T10:06:29.608Z,13.47
2016-10-15T10:07:29.595Z,13.53
2016-10-15T10:08:30.847Z,13.71
2016-10-15T10:09:30.545Z,13.7
2016-10-15T10:10:29.668Z,13.75
2016-10-15T10:11:30.046Z,13.72
2016-10-15T10:12:30.633Z,13.72
2016-10-15T10:13:29.712Z,13.63
2016-10-15T10:14:30.191Z,13.62
2016-10-15T10:15:30.640Z,13.57
2016-10-15T10:16:29.487Z,13.54
2016-10-15T10:17:29.563Z,13.57
2016-10-15T10:18:29.551Z,13.57
2016-10-15T10:19:29.316Z,13.47
2016-10-15T10:20:30.016Z,13.44
2016-10-15T10:21:30.212Z,13.44
2016-10-15T10:22:30.454Z,13.46
2016-10-15T10:23:30.017Z,13.3
2016-10-15T10:24:29.192Z,13.46
2016-10-15T10:25:30.576Z,13.44
2016-10-15T10:26:30.314Z,13.5
2016-10-15T10:27:30.196Z,13.52
2016-10-15T10:28:30.072Z,13.54
2016-10-15T10:29:30.139Z,13.54
2016-10-15T10:30:30.351Z,13.53
2016-10-15T10:31:29.880Z,13.6
2016-10-15T10:32:30.067Z,13.53
2016-10-15T10:33:30.023Z,13.47
2016-10-15T10:34:30.675Z,13.46
2016-10-15T10:35:30.490Z,13.42
2016-10-15T10:36:30.863Z,13.41
2016-10-15T10:37:30.399Z,13.39
2016-10-15T10:38:29.767Z,13.44
2016-10-15T10:39:32.065Z,13.42
2016-10-15T10:40:30.599Z,13.47
2016-10-15T10:41:29.768Z,13.42
2016-10-15T10:42:30.068Z,13.46
2016-10-15T10:43:29.983Z,13.47
2016-10-15T10:44:29.740Z,13.42
2016-10-15T10:45:31.266Z,13.41
2016-10-15T10:46:31.773Z,13.44
2016-10-15T10:47:30.509Z,13.38
2016-10-15T10:48:31.453Z,13.37
2016-10-15T10:49:30.775Z,13.35
2016-10-15T10:50:30.754Z,13.41
2016-10-15T10:51:31.343Z,13.35
2016-10-15T10:52:31.711Z,13.41
2016-10-15T10:53:30.699Z,13.31
2016-10-15T10:54:31.639Z,13.33
2016-10-15T10:55:29.944Z,13.33
2016-10-15T10:56:31.688Z,13.22
2016-10-15T10:57:29.952Z,13.23
2016-10-15T10:58:30.205Z,13.28
2016-10-15T10:59:31.412Z,13.28
2016-10-15T11:00:31.418Z,13.3
2016-10-15T11:01:30.601Z,13.31
2016-10-15T11:02:31.963Z,13.37
2016-10-15T11:03:31.520Z,13.37
2016-10-15T11:04:30.716Z,13.41
2016-10-15T11:05:31.574Z,13.39
2016-10-15T11:06:32.163Z,13.39
2016-10-15T11:07:31.561Z,13.35
2016-10-15T11:08:30.216Z,13.31
2016-10-15T11:09:31.275Z,13.38
2016-10-15T11:10:31.919Z,13.42
2016-10-15T11:11:31.843Z,13.37
2016-10-15T11:12:30.627Z,13.35
2016-10-15T11:13:31.424Z,13.39
2016-10-15T11:14:30.327Z,13.38
2016-10-15T11:15:32.009Z,13.42
2016-10-15T11:16:31.575Z,13.47
2016-10-15T11:17:31.887Z,13.52
2016-10-15T11:18:32.531Z,13.47
2016-10-15T11:19:31.231Z,13.57
2016-10-15T11:20:32.436Z,13.52
2016-10-15T11:21:31.594Z,13.65
2016-10-15T11:22:31.731Z,13.67
2016-10-15T11:23:30.897Z,13.74
2016-10-15T11:24:31.803Z,13.77
2016-10-15T11:25:32.059Z,13.75
2016-10-15T11:26:31.828Z,13.9
2016-10-15T11:27:30.885Z,13.9
2016-10-15T11:28:30.845Z,13.99
2016-10-15T11:29:32.689Z,13.99
2016-10-15T11:30:30.935Z,14.11
2016-10-15T11:31:31.847Z,14.17
2016-10-15T11:32:32.289Z,14.22
2016-10-15T11:33:31.760Z,14.26
2016-10-15T11:34:30.869Z,14.15
2016-10-15T11:35:30.870Z,14.15
2016-10-15T11:36:32.703Z,14.3
2016-10-15T11:37:32.154Z,14.37
2016-10-15T11:38:30.998Z,14.37
2016-10-15T11:39:32.864Z,14.35
2016-10-15T11:40:33.048Z,14.33
2016-10-15T11:41:32.592Z,14.47
2016-10-15T11:42:32.722Z,14.5
2016-10-15T11:43:32.903Z,14.44
2016-10-15T11:44:33.561Z,14.54
2016-10-15T11:45:32.010Z,14.59
2016-10-15T11:46:32.027Z,14.45
2016-10-15T11:47:31.499Z,14.5
2016-10-15T11:48:31.686Z,14.47
2016-10-15T11:49:31.511Z,14.44
2016-10-15T11:50:31.962Z,14.43
2016-10-15T11:51:32.071Z,14.45
2016-10-15T11:52:32.615Z,14.4
2016-10-15T11:53:31.819Z,14.36
2016-10-15T11:54:31.891Z,14.37
2016-10-15T11:55:32.012Z,14.28
2016-10-15T11:56:31.658Z,14.26
2016-10-15T11:57:31.973Z,14.18
2016-10-15T11:58:31.826Z,14.15
2016-10-15T11:59:32.181Z,14.17
2016-10-15T12:00:32.309Z,14.15
2016-10-15T12:01:32.858Z,14.18
2016-10-15T12:02:32.261Z,14.15
2016-10-15T12:03:33.471Z,14.03
2016-10-15T12:04:33.496Z,14.15
2016-10-15T12:05:32.274Z,14.12
2016-10-15T12:06:34.439Z,14.04
2016-10-15T12:07:31.973Z,14.04
2016-10-15T12:08:32.052Z,13.97
2016-10-15T12:09:32.604Z,14.12
2016-10-15T12:10:31.926Z,13.93
2016-10-15T12:11:33.115Z,14
2016-10-15T12:12:32.850Z,13.99
2016-10-15T12:13:32.652Z,14.03
2016-10-15T12:14:32.753Z,14
2016-10-15T12:15:32.715Z,13.92
2016-10-15T12:16:32.939Z,13.89
2016-10-15T12:17:33.360Z,13.87
2016-10-15T12:18:32.752Z,13.74
2016-10-15T12:19:32.052Z,13.85
2016-10-15T12:20:32.898Z,13.79
2016-10-15T12:21:32.311Z,13.7
2016-10-15T12:22:32.297Z,13.75
2016-10-15T12:23:33.050Z,13.79
2016-10-15T12:24:32.528Z,13.78
2016-10-15T12:25:32.326Z,13.74
2016-10-15T12:26:31.826Z,13.75
2016-10-15T12:27:33.154Z,13.7
2016-10-15T12:28:32.880Z,13.71
2016-10-15T12:29:32.723Z,13.74
2016-10-15T12:30:32.615Z,13.72
2016-10-15T12:31:32.506Z,13.67
2016-10-15T12:32:32.594Z,13.7
2016-10-15T12:33:33.457Z,13.67
2016-10-15T12:34:33.187Z,13.78
2016-10-15T12:35:32.912Z,13.75
2016-10-15T12:36:32.795Z,13.9
2016-10-15T12:37:33.388Z,13.79
2016-10-15T12:38:32.556Z,13.83
2016-10-15T12:39:32.118Z,13.92
2016-10-15T12:40:32.352Z,13.89
2016-10-15T12:41:32.581Z,13.93
2016-10-15T12:42:34.515Z,13.95
2016-10-15T12:43:32.579Z,13.9
2016-10-15T12:44:32.650Z,13.92
2016-10-15T12:45:33.464Z,13.87
2016-10-15T12:46:33.079Z,13.81
2016-10-15T12:47:33.072Z,13.77
2016-10-15T12:48:33.343Z,13.75
2016-10-15T12:49:32.548Z,13.79
2016-10-15T12:50:33.281Z,13.74
2016-10-15T12:51:32.692Z,13.77
2016-10-15T12:52:32.932Z,13.79
2016-10-15T12:53:32.776Z,13.79
2016-10-15T12:54:32.617Z,13.7
2016-10-15T12:55:32.205Z,13.77
2016-10-15T12:56:34.000Z,13.78
2016-10-15T12:57:33.330Z,13.78
2016-10-15T12:58:34.126Z,13.77
2016-10-15T12:59:33.521Z,13.79
2016-10-15T13:00:33.349Z,13.81
2016-10-15T13:01:33.828Z,13.7
2016-10-15T13:02:33.479Z,13.75
2016-10-15T13:03:33.324Z,13.77
2016-10-15T13:04:33.111Z,13.77
2016-10-15T13:05:33.954Z,13.72
2016-10-15T13:06:33.194Z,13.79
2016-10-15T13:07:32.712Z,13.74
2016-10-15T13:08:33.144Z,13.77
2016-10-15T13:09:33.582Z,13.81
2016-10-15T13:10:33.665Z,13.74